Terminal Aerodrome Forecast
Issued by NWS Wakefield, VA

Home | Current Version | Previous Version | Text Only | Print | Product List | Glossary On
Versions: 1 2 3 4 5 6 7 8 9 10 11 12 13
479
FTUS41 KAKQ 260539
TAFSBY
TAF
KSBY 260539Z 2606/2706 20004KT P6SM SKC
     FM261500 25006KT P6SM FEW050
     FM270000 24003KT P6SM SKC=

USA.gov is the U.S. government's official web portal to all federal, state and local government web resources and services.